createdAt,value
2023-04-13T00:00:12.225Z,96.47
2023-04-13T00:02:41.215Z,96.58
2023-04-13T00:05:09.678Z,96.25
2023-04-13T00:07:40.178Z,96.34
2023-04-13T00:10:10.174Z,96.06
2023-04-13T00:12:38.149Z,96.14
2023-04-13T00:15:05.686Z,96.31
2023-04-13T00:17:37.352Z,96.08
2023-04-13T00:20:10.628Z,96.28
2023-04-13T00:22:37.825Z,96.25
2023-04-13T00:25:10.043Z,96.13
2023-04-13T00:27:40.463Z,96.15
2023-04-13T00:30:09.420Z,95.99
2023-04-13T00:32:51.760Z,95.94
2023-04-13T00:35:24.239Z,95.88
2023-04-13T00:37:51.929Z,95.85
2023-04-13T00:40:19.615Z,95.73
2023-04-13T00:42:49.260Z,95.74
2023-04-13T00:45:20.256Z,95.79
2023-04-13T00:47:50.062Z,95.74
2023-04-13T00:50:20.259Z,95.90
2023-04-13T00:52:48.229Z,95.63
2023-04-13T00:55:20.247Z,95.59
2023-04-13T00:57:51.951Z,95.60
2023-04-13T01:00:20.534Z,95.68
2023-04-13T01:03:02.046Z,95.78
2023-04-13T01:05:37.014Z,95.48
2023-04-13T01:08:14.345Z,95.40
2023-04-13T01:10:55.076Z,95.75
2023-04-13T01:13:42.016Z,95.49
2023-04-13T01:16:19.384Z,95.42
2023-04-13T01:18:50.055Z,95.45
2023-04-13T01:21:21.041Z,95.38
2023-04-13T01:23:48.606Z,95.59
2023-04-13T01:26:16.684Z,95.34
2023-04-13T01:28:47.592Z,95.39
2023-04-13T01:31:16.662Z,95.48
2023-04-13T01:33:43.438Z,95.30
2023-04-13T01:36:10.846Z,95.17
2023-04-13T01:38:39.462Z,95.25
2023-04-13T01:41:08.998Z,95.07
2023-04-13T01:43:38.452Z,95.05
2023-04-13T01:46:13.223Z,95.05
2023-04-13T01:48:49.930Z,94.99
2023-04-13T01:51:44.733Z,95.07
2023-04-13T01:54:17.057Z,95.05
2023-04-13T01:56:46.097Z,94.99
2023-04-13T01:59:13.287Z,94.98
2023-04-13T02:01:40.522Z,95.04
2023-04-13T02:04:15.210Z,95.23
2023-04-13T02:06:46.356Z,95.02
2023-04-13T02:09:13.913Z,95.11
2023-04-13T02:11:41.452Z,94.99
2023-04-13T02:14:18.145Z,94.83
2023-04-13T02:16:45.337Z,95.01
2023-04-13T02:19:14.192Z,94.97
2023-04-13T02:21:41.588Z,95.09
2023-04-13T02:24:08.631Z,95.10
2023-04-13T02:26:37.088Z,95.02
2023-04-13T02:29:05.112Z,95.17
2023-04-13T02:31:51.937Z,95.16
2023-04-13T02:34:18.805Z,95.29
2023-04-13T02:36:45.841Z,95.14
2023-04-13T02:39:15.945Z,94.87
2023-04-13T02:41:43.920Z,94.92
2023-04-13T02:44:17.256Z,94.94
2023-04-13T02:46:49.574Z,94.97
2023-04-13T02:49:17.994Z,94.94
2023-04-13T02:51:55.580Z,94.78
2023-04-13T02:54:31.046Z,94.91
2023-04-13T02:56:58.717Z,95.02
2023-04-13T02:59:27.892Z,94.95
2023-04-13T03:01:58.047Z,95.09
2023-04-13T03:04:27.138Z,95.03
2023-04-13T03:06:54.380Z,95.20
2023-04-13T03:09:23.264Z,95.11
2023-04-13T03:11:58.170Z,94.98
2023-04-13T03:14:29.319Z,95.11
2023-04-13T03:17:01.199Z,95.13
2023-04-13T03:19:37.385Z,94.95
2023-04-13T03:22:04.680Z,95.02
2023-04-13T03:24:34.612Z,95.14
2023-04-13T03:27:04.988Z,95.20
2023-04-13T03:29:36.596Z,95.20
2023-04-13T03:32:04.865Z,95.05
2023-04-13T03:34:33.300Z,94.98
2023-04-13T03:37:02.257Z,95.03
2023-04-13T03:39:32.254Z,95.30
2023-04-13T03:41:59.079Z,95.21
2023-04-13T03:44:26.656Z,95.29
2023-04-13T03:46:53.778Z,95.26
2023-04-13T03:49:24.778Z,95.46
2023-04-13T03:51:56.833Z,95.24
2023-04-13T03:54:25.269Z,95.39
2023-04-13T03:56:53.137Z,95.23
2023-04-13T03:59:20.057Z,95.29
2023-04-13T04:01:47.485Z,95.32
2023-04-13T04:04:15.694Z,95.38
2023-04-13T04:06:45.381Z,95.26
2023-04-13T04:09:13.974Z,95.40
2023-04-13T04:11:44.597Z,95.30
2023-04-13T04:14:12.480Z,95.45
2023-04-13T04:16:47.512Z,95.30
2023-04-13T04:19:15.871Z,95.58
2023-04-13T04:21:44.231Z,95.42
2023-04-13T04:24:21.920Z,95.48
2023-04-13T04:26:54.392Z,95.68
2023-04-13T04:29:21.707Z,95.46
2023-04-13T04:31:52.738Z,95.59
2023-04-13T04:34:22.522Z,95.71
2023-04-13T04:36:50.536Z,95.52
2023-04-13T04:39:21.690Z,95.62
2023-04-13T04:42:02.354Z,95.63
2023-04-13T04:44:32.202Z,95.69
2023-04-13T04:47:03.552Z,95.43
2023-04-13T04:49:31.664Z,95.46
2023-04-13T04:51:58.805Z,95.55
2023-04-13T04:54:26.018Z,95.69
2023-04-13T04:56:52.974Z,95.71
2023-04-13T04:59:21.040Z,95.81
2023-04-13T05:01:56.814Z,95.86
2023-04-13T05:04:23.878Z,96.02
2023-04-13T05:06:52.492Z,96.21
2023-04-13T05:09:22.758Z,96.18
2023-04-13T05:11:53.967Z,96.07
2023-04-13T05:14:21.137Z,95.96
2023-04-13T05:16:51.457Z,95.61
2023-04-13T05:19:29.084Z,95.34
2023-04-13T05:22:02.259Z,94.88
2023-04-13T05:24:35.522Z,94.32
2023-04-13T05:27:03.415Z,94.08
2023-04-13T05:29:32.918Z,94.08
2023-04-13T05:32:00.073Z,93.95
2023-04-13T05:34:28.204Z,94.13
2023-04-13T05:37:32.136Z,93.75
2023-04-13T05:39:59.708Z,93.49
2023-04-13T05:42:32.459Z,93.19
2023-04-13T05:45:00.159Z,92.83
2023-04-13T05:47:28.319Z,92.53
2023-04-13T05:49:58.168Z,92.10
2023-04-13T05:52:26.560Z,91.84
2023-04-13T05:54:54.154Z,91.57
2023-04-13T05:57:22.503Z,91.10
2023-04-13T05:59:51.459Z,90.40
2023-04-13T06:02:21.984Z,89.82
2023-04-13T06:04:52.942Z,89.36
2023-04-13T06:07:21.200Z,89.23
2023-04-13T06:09:49.016Z,88.67
2023-04-13T06:12:21.016Z,88.25
2023-04-13T06:14:49.117Z,88.07
2023-04-13T06:17:16.160Z,87.80
2023-04-13T06:19:43.867Z,87.76
2023-04-13T06:22:10.908Z,87.48
2023-04-13T06:24:39.214Z,87.09
2023-04-13T06:27:07.357Z,86.68
2023-04-13T06:29:36.017Z,86.11
2023-04-13T06:32:07.225Z,85.62
2023-04-13T06:34:35.169Z,84.95
2023-04-13T06:37:02.668Z,84.56
2023-04-13T06:39:33.017Z,83.99
2023-04-13T06:42:00.858Z,83.67
2023-04-13T06:44:54.334Z,83.11
2023-04-13T06:47:21.446Z,82.69
2023-04-13T06:49:51.516Z,82.48
2023-04-13T06:52:18.422Z,82.53
2023-04-13T06:54:45.353Z,82.12
2023-04-13T06:57:33.427Z,81.67
2023-04-13T07:00:00.463Z,81.49
2023-04-13T07:02:31.124Z,81.28
2023-04-13T07:05:01.230Z,81.38
2023-04-13T07:07:30.184Z,81.54
2023-04-13T07:09:58.856Z,81.08
2023-04-13T07:12:34.473Z,80.84
2023-04-13T07:15:02.304Z,80.49
2023-04-13T07:17:32.315Z,79.84
2023-04-13T07:20:03.648Z,79.30
2023-04-13T07:22:33.087Z,78.82
2023-04-13T07:25:00.814Z,78.51
2023-04-13T07:27:28.279Z,78.47
2023-04-13T07:29:56.156Z,78.18
2023-04-13T07:32:30.921Z,78.31
2023-04-13T07:35:00.874Z,78.48
2023-04-13T07:37:31.560Z,78.51
2023-04-13T07:39:59.794Z,78.42
2023-04-13T07:42:28.391Z,78.07
2023-04-13T07:44:59.137Z,77.35
2023-04-13T07:47:26.972Z,76.53
2023-04-13T07:49:57.018Z,76.11
2023-04-13T07:52:24.216Z,75.78
2023-04-13T07:54:52.507Z,75.57
2023-04-13T07:57:20.955Z,75.02
2023-04-13T07:59:51.248Z,74.44
2023-04-13T08:02:19.990Z,74.25
2023-04-13T08:04:47.248Z,73.96
2023-04-13T08:07:18.215Z,73.44
2023-04-13T08:09:47.950Z,73.26
2023-04-13T08:12:16.118Z,72.79
2023-04-13T08:14:47.747Z,72.68
2023-04-13T08:17:18.065Z,72.74
2023-04-13T08:19:45.841Z,72.70
2023-04-13T08:22:15.479Z,72.74
2023-04-13T08:24:45.647Z,72.37
2023-04-13T08:27:12.683Z,72.30
2023-04-13T08:29:39.502Z,72.38
2023-04-13T08:32:06.875Z,72.41
2023-04-13T08:34:34.535Z,72.73
2023-04-13T08:37:01.906Z,72.81
2023-04-13T08:39:41.045Z,72.32
2023-04-13T08:42:09.283Z,72.37
2023-04-13T08:44:40.056Z,72.62
2023-04-13T08:47:16.600Z,72.25
2023-04-13T08:49:44.264Z,71.94
2023-04-13T08:52:17.003Z,71.61
2023-04-13T08:54:48.736Z,70.80
2023-04-13T08:57:20.593Z,70.26
2023-04-13T08:59:51.789Z,69.96
2023-04-13T09:02:25.807Z,69.35
2023-04-13T09:04:59.241Z,69.41
2023-04-13T09:07:31.829Z,69.51
2023-04-13T09:10:03.581Z,69.44
2023-04-13T09:12:33.635Z,69.50
2023-04-13T09:15:02.644Z,69.51
2023-04-13T09:17:31.859Z,68.84
2023-04-13T09:20:23.781Z,68.54
2023-04-13T09:22:52.648Z,68.33
2023-04-13T09:25:23.799Z,67.95
2023-04-13T09:27:51.675Z,66.97
2023-04-13T09:30:21.070Z,66.25
2023-04-13T09:33:11.080Z,65.40
2023-04-13T09:35:41.764Z,64.67
2023-04-13T09:38:11.228Z,63.98
2023-04-13T09:40:47.682Z,63.34
2023-04-13T09:43:15.021Z,63.16
2023-04-13T09:45:43.879Z,62.97
2023-04-13T09:48:21.274Z,62.74
2023-04-13T09:51:01.542Z,62.75
2023-04-13T09:53:39.954Z,62.44
2023-04-13T09:56:07.146Z,61.82
2023-04-13T09:58:40.525Z,61.76
2023-04-13T10:01:09.717Z,61.76
2023-04-13T10:03:37.461Z,62.06
2023-04-13T10:06:07.215Z,62.40
2023-04-13T10:08:39.060Z,62.74
2023-04-13T10:11:10.991Z,62.88
2023-04-13T10:13:51.089Z,63.13
2023-04-13T10:16:21.201Z,63.41
2023-04-13T10:19:07.682Z,63.48
2023-04-13T10:21:39.403Z,63.77
2023-04-13T10:24:11.721Z,64.22
2023-04-13T10:26:41.163Z,64.48
2023-04-13T10:29:09.587Z,64.66
2023-04-13T10:31:39.582Z,64.40
2023-04-13T10:34:10.136Z,63.79
2023-04-13T10:36:38.588Z,63.34
2023-04-13T10:39:05.622Z,63.73
2023-04-13T10:41:32.757Z,63.74
2023-04-13T10:44:01.811Z,63.67
2023-04-13T10:46:29.096Z,63.77
2023-04-13T10:48:59.833Z,64.09
2023-04-13T10:51:43.630Z,64.51
2023-04-13T10:54:12.486Z,65.13
2023-04-13T10:56:39.750Z,65.59
2023-04-13T10:59:07.541Z,66.08
2023-04-13T11:01:35.255Z,66.44
2023-04-13T11:04:06.073Z,66.64
2023-04-13T11:06:38.460Z,66.92
2023-04-13T11:09:06.200Z,67.03
2023-04-13T11:11:35.108Z,67.00
2023-04-13T11:14:04.443Z,67.07
2023-04-13T11:16:43.678Z,67.16
2023-04-13T11:19:11.310Z,67.33
2023-04-13T11:21:38.204Z,67.54
2023-04-13T11:24:05.300Z,67.79
2023-04-13T11:26:38.206Z,68.20
2023-04-13T11:29:16.963Z,68.60
2023-04-13T11:31:46.171Z,69.27
2023-04-13T11:34:13.442Z,69.35
2023-04-13T11:36:40.458Z,69.36
2023-04-13T11:39:10.142Z,69.64
2023-04-13T11:41:43.885Z,69.68
2023-04-13T11:44:11.848Z,69.70
2023-04-13T11:46:38.943Z,69.69
2023-04-13T11:49:05.956Z,70.02
2023-04-13T11:51:33.439Z,70.54
2023-04-13T11:54:00.575Z,70.78
2023-04-13T11:56:27.402Z,71.16
2023-04-13T11:58:54.356Z,71.21
2023-04-13T12:01:26.100Z,71.14
2023-04-13T12:04:12.851Z,70.99
2023-04-13T12:06:44.964Z,70.89
2023-04-13T12:09:17.310Z,71.07
2023-04-13T12:12:15.941Z,71.38
2023-04-13T12:14:54.845Z,71.50
2023-04-13T12:20:03.997Z,71.92
2023-04-13T12:22:50.817Z,71.87
2023-04-13T12:25:24.250Z,71.89
2023-04-13T12:27:52.190Z,71.71
2023-04-13T12:30:20.668Z,71.77
2023-04-13T12:32:53.515Z,72.03
2023-04-13T12:35:21.004Z,72.29
2023-04-13T12:37:48.631Z,72.64
2023-04-13T12:40:16.343Z,72.77
2023-04-13T12:42:48.076Z,73.01
2023-04-13T12:45:16.062Z,73.22
2023-04-13T12:47:43.100Z,73.12
2023-04-13T12:50:11.028Z,73.21
2023-04-13T12:52:41.804Z,73.54
2023-04-13T12:55:09.361Z,73.75
2023-04-13T12:57:41.202Z,73.85
2023-04-13T13:00:10.625Z,73.83
2023-04-13T13:02:39.385Z,74.03
2023-04-13T13:05:08.713Z,74.23
2023-04-13T13:07:35.578Z,74.35
2023-04-13T13:10:25.880Z,74.08
2023-04-13T13:12:59.997Z,73.87
2023-04-13T13:15:27.134Z,73.73
2023-04-13T13:17:54.979Z,73.45
2023-04-13T13:20:21.977Z,73.41
2023-04-13T13:22:49.058Z,73.42
2023-04-13T13:25:16.527Z,72.99
2023-04-13T13:30:13.893Z,72.80
2023-04-13T13:32:42.732Z,72.85
2023-04-13T13:35:10.218Z,72.80
2023-04-13T13:37:39.174Z,72.78
2023-04-13T13:40:12.351Z,72.67
2023-04-13T13:42:50.178Z,72.68
2023-04-13T13:45:17.938Z,72.70
2023-04-13T13:47:49.557Z,72.73
2023-04-13T13:50:16.651Z,72.53
2023-04-13T13:53:01.690Z,72.68
2023-04-13T13:55:31.755Z,73.00
2023-04-13T13:57:59.559Z,73.21
2023-04-13T14:00:26.453Z,73.23
2023-04-13T14:02:53.744Z,73.33
2023-04-13T14:05:21.636Z,73.41
2023-04-13T14:07:49.252Z,73.57
2023-04-13T14:10:16.846Z,73.71
2023-04-13T14:12:47.405Z,73.82
2023-04-13T14:15:21.200Z,74.03
2023-04-13T14:17:55.827Z,74.24
2023-04-13T14:20:34.224Z,74.24
2023-04-13T14:23:01.162Z,74.32
2023-04-13T14:25:28.749Z,74.21
2023-04-13T14:27:56.514Z,73.93
2023-04-13T14:30:24.966Z,73.88
2023-04-13T14:32:54.204Z,73.72
2023-04-13T14:35:21.678Z,73.77
2023-04-13T14:37:48.785Z,73.72
2023-04-13T14:40:21.241Z,73.63
2023-04-13T14:42:53.276Z,73.56
2023-04-13T14:45:20.480Z,73.59
2023-04-13T14:47:47.549Z,73.57
2023-04-13T14:50:15.644Z,73.63
2023-04-13T14:52:44.310Z,73.50
2023-04-13T14:55:12.681Z,73.34
2023-04-13T14:57:41.026Z,73.52
2023-04-13T15:00:22.047Z,73.62
2023-04-13T15:03:10.653Z,73.98
2023-04-13T15:05:39.590Z,73.99
2023-04-13T15:08:07.655Z,74.00
2023-04-13T15:10:34.847Z,74.06
2023-04-13T15:13:07.782Z,74.15
2023-04-13T15:15:36.160Z,74.26
2023-04-13T15:18:03.734Z,74.38
2023-04-13T15:20:34.948Z,74.58
2023-04-13T15:23:02.881Z,74.72
2023-04-13T15:25:30.356Z,75.08
2023-04-13T15:27:58.675Z,75.40
2023-04-13T15:30:28.009Z,75.78
2023-04-13T15:32:57.873Z,76.15
2023-04-13T15:35:27.006Z,76.45
2023-04-13T15:37:54.564Z,76.65
2023-04-13T15:40:24.456Z,76.96
2023-04-13T15:42:51.517Z,77.12
2023-04-13T15:45:20.254Z,77.23
2023-04-13T15:47:47.282Z,77.11
2023-04-13T15:50:14.740Z,76.99
2023-04-13T15:52:41.912Z,77.13
2023-04-13T15:55:09.430Z,77.10
2023-04-13T15:57:36.576Z,77.11
2023-04-13T16:00:06.652Z,77.46
2023-04-13T16:02:35.111Z,77.60
2023-04-13T16:05:03.244Z,77.61
2023-04-13T16:07:30.445Z,77.66
2023-04-13T16:09:57.841Z,77.88
2023-04-13T16:12:31.273Z,78.15
2023-04-13T16:14:58.979Z,78.32
2023-04-13T16:17:31.568Z,78.34
2023-04-13T16:20:12.770Z,78.31
2023-04-13T16:22:41.509Z,78.41
2023-04-13T16:25:15.003Z,78.46
2023-04-13T16:27:42.880Z,78.59
2023-04-13T16:30:12.344Z,78.84
2023-04-13T16:32:45.848Z,78.90
2023-04-13T16:35:12.873Z,79.00
2023-04-13T16:37:41.775Z,78.97
2023-04-13T16:40:12.728Z,78.98
2023-04-13T16:42:41.123Z,79.08
2023-04-13T16:45:10.287Z,79.13
2023-04-13T16:47:41.380Z,79.30
2023-04-13T16:50:10.234Z,79.49
2023-04-13T16:52:38.329Z,79.57
2023-04-13T16:55:06.014Z,79.62
2023-04-13T16:57:33.207Z,79.79
2023-04-13T17:00:10.228Z,79.88
2023-04-13T17:02:39.932Z,79.99
2023-04-13T17:05:08.394Z,80.04
2023-04-13T17:07:38.021Z,79.97
2023-04-13T17:10:20.935Z,80.01
2023-04-13T17:12:49.647Z,80.09
2023-04-13T17:15:18.421Z,80.27
2023-04-13T17:17:45.900Z,80.35
2023-04-13T17:20:16.925Z,80.44
2023-04-13T17:22:44.670Z,80.53
2023-04-13T17:25:18.830Z,80.54
2023-04-13T17:27:46.872Z,80.68
2023-04-13T17:30:14.099Z,80.67
2023-04-13T17:32:57.107Z,80.89
2023-04-13T17:35:23.980Z,80.93
2023-04-13T17:37:51.006Z,81.05
2023-04-13T17:40:19.922Z,81.18
2023-04-13T17:42:47.430Z,81.34
2023-04-13T17:45:17.881Z,81.38
2023-04-13T17:47:48.849Z,81.43
2023-04-13T17:50:17.831Z,81.64
2023-04-13T17:52:44.681Z,81.77
2023-04-13T17:55:15.537Z,81.79
2023-04-13T17:57:43.158Z,81.88
2023-04-13T18:00:11.471Z,82.00
2023-04-13T18:02:58.426Z,82.12
2023-04-13T18:05:27.292Z,82.19
2023-04-13T18:07:54.167Z,82.23
2023-04-13T18:10:21.070Z,82.25
2023-04-13T18:12:53.113Z,82.34
2023-04-13T18:15:21.298Z,82.35
2023-04-13T18:17:48.166Z,82.54
2023-04-13T18:20:15.184Z,82.69
2023-04-13T18:22:42.743Z,82.81
2023-04-13T18:25:09.895Z,82.82
2023-04-13T18:27:36.881Z,82.82
2023-04-13T18:30:08.319Z,82.95
2023-04-13T18:32:36.903Z,83.04
2023-04-13T18:35:04.197Z,83.17
2023-04-13T18:37:31.540Z,83.21
2023-04-13T18:39:58.695Z,83.22
2023-04-13T18:42:25.755Z,83.27
2023-04-13T18:44:56.316Z,83.19
2023-04-13T18:47:25.133Z,83.10
2023-04-13T18:49:51.944Z,83.14
2023-04-13T18:52:19.077Z,83.12
2023-04-13T18:54:48.109Z,83.07
2023-04-13T18:57:15.006Z,83.14
2023-04-13T18:59:44.614Z,83.22
2023-04-13T19:02:41.758Z,83.17
2023-04-13T19:05:11.582Z,83.27
2023-04-13T19:07:56.721Z,83.16
2023-04-13T19:10:24.717Z,83.11
2023-04-13T19:12:52.264Z,83.35
2023-04-13T19:15:24.576Z,83.42
2023-04-13T19:17:52.906Z,83.55
2023-04-13T19:20:21.518Z,83.46
2023-04-13T19:22:48.558Z,83.39
2023-04-13T19:25:17.585Z,83.31
2023-04-13T19:27:47.112Z,82.98
2023-04-13T19:30:15.350Z,82.84
2023-04-13T19:32:44.540Z,82.65
2023-04-13T19:35:12.115Z,82.72
2023-04-13T19:37:39.097Z,82.62
2023-04-13T19:40:12.551Z,82.79
2023-04-13T19:42:42.182Z,82.83
2023-04-13T19:45:09.172Z,82.81
2023-04-13T19:47:39.072Z,82.90
2023-04-13T19:50:09.317Z,82.99
2023-04-13T19:52:36.615Z,82.90
2023-04-13T19:55:03.642Z,82.92
2023-04-13T19:57:31.232Z,83.04
2023-04-13T19:59:57.994Z,82.89
2023-04-13T20:02:25.070Z,83.06
2023-04-13T20:04:53.337Z,83.12
2023-04-13T20:07:20.171Z,83.27
2023-04-13T20:09:46.967Z,83.47
2023-04-13T20:12:21.221Z,83.51
2023-04-13T20:14:48.817Z,83.60
2023-04-13T20:17:15.816Z,83.80
2023-04-13T20:19:44.399Z,83.66
2023-04-13T20:22:13.018Z,83.68
2023-04-13T20:24:39.888Z,83.75
2023-04-13T20:27:09.417Z,83.74
2023-04-13T20:29:36.908Z,83.77
2023-04-13T20:32:07.941Z,83.86
2023-04-13T20:34:37.198Z,84.04
2023-04-13T20:37:09.121Z,84.01
2023-04-13T20:39:49.473Z,83.87
2023-04-13T20:42:20.598Z,84.00
2023-04-13T20:44:56.700Z,84.03
2023-04-13T20:47:27.876Z,83.97
2023-04-13T20:49:56.823Z,84.08
2023-04-13T20:52:23.851Z,84.09
2023-04-13T20:54:50.881Z,84.08
2023-04-13T20:57:19.297Z,84.03
2023-04-13T20:59:47.449Z,84.06
2023-04-13T21:02:15.146Z,84.06
2023-04-13T21:04:43.245Z,84.10
2023-04-13T21:07:10.968Z,83.90
2023-04-13T21:09:38.891Z,84.05
2023-04-13T21:12:06.681Z,84.15
2023-04-13T21:14:33.524Z,84.37
2023-04-13T21:17:00.716Z,84.30
2023-04-13T21:19:27.659Z,84.44
2023-04-13T21:21:56.833Z,84.38
2023-04-13T21:24:24.791Z,84.49
2023-04-13T21:26:52.351Z,84.58
2023-04-13T21:29:19.652Z,84.46
2023-04-13T21:31:47.227Z,84.60
2023-04-13T21:34:15.463Z,84.56
2023-04-13T21:39:15.416Z,84.71
2023-04-13T21:41:42.227Z,84.59
2023-04-13T21:44:19.128Z,84.84
2023-04-13T21:46:56.083Z,84.81
2023-04-13T21:49:22.986Z,84.79
2023-04-13T21:51:50.114Z,84.84
2023-04-13T21:54:17.064Z,84.91
2023-04-13T21:56:43.809Z,84.88
2023-04-13T21:59:10.849Z,84.77
2023-04-13T22:01:38.111Z,84.88
2023-04-13T22:04:05.834Z,84.76
2023-04-13T22:06:32.894Z,84.85
2023-04-13T22:09:01.495Z,84.79
2023-04-13T22:11:28.939Z,84.72
2023-04-13T22:13:55.791Z,84.86
2023-04-13T22:16:22.881Z,84.75
2023-04-13T22:18:51.532Z,84.71
2023-04-13T22:21:18.373Z,84.43
2023-04-13T22:23:47.652Z,84.53
2023-04-13T22:26:14.505Z,84.39
2023-04-13T22:28:41.272Z,84.42
2023-04-13T22:31:11.638Z,84.53
2023-04-13T22:33:39.921Z,84.34
2023-04-13T22:36:16.017Z,84.23
2023-04-13T22:38:47.356Z,84.21
2023-04-13T22:41:15.128Z,84.01
2023-04-13T22:43:42.434Z,84.21
2023-04-13T22:46:10.206Z,84.24
2023-04-13T22:48:37.704Z,84.06
2023-04-13T22:51:04.712Z,84.01
2023-04-13T22:53:31.775Z,84.11
2023-04-13T22:56:00.036Z,84.11
2023-04-13T22:58:27.561Z,84.12
2023-04-13T23:00:55.140Z,84.07
2023-04-13T23:03:23.919Z,84.13
2023-04-13T23:05:52.281Z,84.06
2023-04-13T23:08:19.089Z,84.20
2023-04-13T23:10:46.059Z,84.32
2023-04-13T23:13:13.041Z,84.38
2023-04-13T23:15:40.473Z,84.47
2023-04-13T23:18:08.044Z,84.65
2023-04-13T23:20:35.369Z,84.70
2023-04-13T23:23:02.325Z,85.04
2023-04-13T23:25:29.725Z,85.17
2023-04-13T23:27:56.657Z,85.62
2023-04-13T23:30:23.497Z,85.86
2023-04-13T23:32:51.016Z,86.13
2023-04-13T23:35:18.162Z,86.09
2023-04-13T23:37:45.589Z,86.51
2023-04-13T23:40:13.277Z,86.55
2023-04-13T23:42:40.601Z,86.63
2023-04-13T23:45:11.829Z,86.83
2023-04-13T23:47:39.335Z,86.89
2023-04-13T23:50:07.006Z,87.09
2023-04-13T23:52:33.937Z,87.11
2023-04-13T23:55:01.015Z,86.84
2023-04-13T23:57:33.063Z,87.00
